EGLC METAR and TAF | Updated Today

EGLC METAR

London City Airport

Observation time: 11 min. ago

EGLC 061850Z AUTO 10007KT 9999 NCD 06/M01 Q1040

Need help? Read our tutorial on how to read METARs or read the parsed version below.

London City Airport (EGLC) METAR

  • Weather conditions on Mon, 06 Feb 2023 18:50:00 +0000 (11 min. ago):
  • Present conditions: Dry
  • Clouds: Nil cloud detected
  • Visibility: Greater than 10 km
  • Wind: 100 degrees at 7 knots
  • Temperature: 6 celsius
  • Dew point: -1 celsius
  • Pressure: 1040 millibars
  • Remarks: None


Useful to know...